Time;durP1;ratioP1;P1;durP2;ratioP2;P2;SDS_P1;SDS_P2;PMS_P1;PMS_P2;Temp;Humidity;BMP_temperature;BMP_pressure;BME280_temperature;BME280_humidity;BME280_pressure;Samples;Min_cycle;Max_cycle;Signal;HPM_P1;HPM_P2
2022/05/02 00:00:20;;;;;;;16.21;7.14;;;;;;;;;;367429;146;865115;-55
2022/05/02 00:01:23;;;;;;;16.23;6.96;;;;;;;;;;366185;147;857863;-54
2022/05/02 00:02:25;;;;;;;16.10;8.01;;;;;;;;;;366414;147;857626;-55
2022/05/02 00:03:26;;;;;;;13.06;6.93;;;;;;;;;;365169;145;864726;-54
2022/05/02 00:04:27;;;;;;;15.61;7.57;;;;;;;;;;366553;146;857149;-55
2022/05/02 00:05:29;;;;;;;15.75;7.79;;;;;;;;;;366500;147;857269;-54
2022/05/02 00:06:31;;;;;;;16.54;7.51;;;;;;;;;;366451;146;857225;-54
2022/05/02 00:07:32;;;;;;;13.83;7.26;;;;;;;;;;366548;147;864910;-54
2022/05/02 00:08:34;;;;;;;7.32;3.92;;;;;;;;;;366550;146;857194;-54
2022/05/02 00:09:35;;;;;;;9.95;4.48;;;;;;;;;;366441;145;864743;-57
2022/05/02 00:10:37;;;;;;;11.21;4.26;;;;;;;;;;366631;145;857246;-54
2022/05/02 00:11:38;;;;;;;9.82;5.29;;;;;;;;;;366526;147;865958;-55
2022/05/02 00:12:40;;;;;;;10.99;5.04;;;;;;;;;;366490;146;858932;-54
2022/05/02 00:13:42;;;;;;;8.87;4.82;;;;;;;;;;366440;147;866743;-54
2022/05/02 00:14:43;;;;;;;10.95;5.53;;;;;;;;;;366453;145;857281;-54
2022/05/02 00:15:46;;;;;;;12.11;5.16;;;;;;;;;;366482;146;858910;-55
2022/05/02 00:16:47;;;;;;;15.99;8.14;;;;;;;;;;366646;145;865803;-54
2022/05/02 00:17:58;;;;;;;13.74;7.84;;;;;;;;;;366664;147;857371;-55
2022/05/02 00:18:59;;;;;;;12.72;7.56;;;;;;;;;;366767;145;858955;-56
2022/05/02 00:20:01;;;;;;;15.19;7.69;;;;;;;;;;366655;144;857299;-56
2022/05/02 00:21:02;;;;;;;12.65;7.40;;;;;;;;;;365952;145;866227;-55
2022/05/02 00:22:04;;;;;;;14.49;7.78;;;;;;;;;;365861;144;860173;-56
2022/05/02 00:23:06;;;;;;;16.86;7.90;;;;;;;;;;366144;147;864837;-55
2022/05/02 00:24:09;;;;;;;14.79;8.37;;;;;;;;;;366250;146;865050;-55
2022/05/02 00:25:10;;;;;;;12.95;7.85;;;;;;;;;;364120;147;859346;-54
2022/05/02 00:26:13;;;;;;;12.45;7.17;;;;;;;;;;363109;147;857393;-54
2022/05/02 00:27:15;;;;;;;10.92;6.57;;;;;;;;;;366221;143;864275;-54
2022/05/02 00:28:16;;;;;;;12.79;6.98;;;;;;;;;;379399;142;857799;-54
2022/05/02 00:29:18;;;;;;;13.59;6.81;;;;;;;;;;379510;142;857104;-54
2022/05/02 00:30:19;;;;;;;13.89;7.03;;;;;;;;;;379410;141;857335;-57
2022/05/02 00:31:21;;;;;;;6.94;3.71;;;;;;;;;;379378;142;866791;-55
2022/05/02 00:32:23;;;;;;;7.59;4.31;;;;;;;;;;379411;140;866532;-55
2022/05/02 00:33:25;;;;;;;11.45;4.49;;;;;;;;;;379436;141;857138;-55
2022/05/02 00:34:26;;;;;;;8.30;4.67;;;;;;;;;;379450;141;857155;-55
2022/05/02 00:35:28;;;;;;;11.20;5.12;;;;;;;;;;379400;141;857050;-55
2022/05/02 00:36:29;;;;;;;7.92;3.79;;;;;;;;;;379791;141;855948;-56
2022/05/02 00:37:31;;;;;;;7.49;4.09;;;;;;;;;;378691;141;856715;-55
2022/05/02 00:38:32;;;;;;;14.13;4.67;;;;;;;;;;379743;142;856491;-55
2022/05/02 00:39:34;;;;;;;13.54;7.22;;;;;;;;;;379137;141;856207;-55
2022/05/02 00:40:36;;;;;;;12.12;7.01;;;;;;;;;;378188;142;856368;-55
2022/05/02 00:44:17;;;;;;;11.56;6.64;;;;;;;7.63;59.33;100333.00;374890;142;882427;-55
2022/05/02 00:45:19;;;;;;;14.91;7.01;;;;;;;7.59;59.47;100340.70;366129;146;857313;-54
2022/05/02 00:46:22;;;;;;;13.77;6.83;;;;;;;7.62;58.97;100336.44;365774;147;859077;-54
2022/05/02 00:47:24;;;;;;;15.09;7.53;;;;;;;7.66;58.71;100336.49;366128;147;856183;-54
2022/05/02 00:48:26;;;;;;;14.78;7.65;;;;;;;7.69;58.75;100336.52;366104;146;863833;-55
2022/05/02 00:49:27;;;;;;;14.15;7.83;;;;;;;7.72;58.22;100339.13;366384;146;863807;-55
2022/05/02 00:50:37;;;;;;;13.54;7.04;;;;;;;7.78;58.43;100334.89;366086;146;863717;-55
2022/05/02 00:51:39;;;;;;;11.97;7.04;;;;;;;7.82;57.70;100339.22;365181;147;863720;-55
2022/05/02 00:52:41;;;;;;;11.51;6.76;;;;;;;7.85;57.79;100340.09;359830;147;855952;-55
2022/05/02 00:53:47;;;;;;;6.06;3.92;;;;;;;7.86;57.76;100336.67;360578;147;856182;-55
2022/05/02 00:54:49;;;;;;;6.83;4.44;;;;;;;7.91;57.38;100336.73;359619;147;863506;-55
2022/05/02 00:55:51;;;;;;;13.24;5.33;;;;;;;7.90;56.28;100332.42;359828;147;855973;-56
2022/05/02 00:56:52;;;;;;;8.27;4.40;;;;;;;7.86;56.23;100336.67;359835;147;863759;-55
2022/05/02 00:57:54;;;;;;;8.31;3.84;;;;;;;7.80;55.94;100336.61;359888;147;856421;-55
2022/05/02 00:58:56;;;;;;;12.70;4.69;;;;;;;7.71;56.65;100337.41;360204;147;863507;-56
2022/05/02 00:59:58;;;;;;;8.93;4.19;;;;;;;7.62;56.43;100334.73;364212;146;863711;-55
2022/05/02 01:00:59;;;;;;;7.05;3.68;;;;;;;7.54;57.14;100332.06;363801;147;863747;-55
2022/05/02 01:03:51;;;;;;;17.90;6.78;;;;;;;7.46;58.35;100325.96;374810;142;882901;-54
2022/05/02 01:04:53;;;;;;;10.89;6.46;;;;;;;7.37;58.69;100331.02;363057;147;857776;-55
2022/05/02 01:07:21;;;;;;;12.24;6.83;;;;;;;7.38;58.32;100333.59;365663;147;865571;-56
2022/05/02 01:08:26;;;;;;;12.06;6.59;;;;;;;7.41;58.13;100331.05;365610;147;865110;-56
2022/05/02 01:09:28;;;;;;;10.42;7.21;;;;;;;;;;365993;147;858921;-54
2022/05/02 01:10:30;;;;;;;15.59;7.18;;;;;;;;;;365854;146;858867;-55
2022/05/02 01:11:31;;;;;;;12.53;6.46;;;;;;;;;;366124;146;857229;-55
2022/05/02 01:12:33;;;;;;;13.55;7.19;;;;;;;;;;361031;146;857156;-55
2022/05/02 01:13:36;;;;;;;16.01;7.03;;;;;;;;;;366142;146;857262;-54
2022/05/02 01:14:38;;;;;;;13.74;7.30;;;;;;;;;;361109;147;857239;-55
2022/05/02 01:15:39;;;;;;;10.93;6.19;;;;;;;;;;365943;146;860393;-55
2022/05/02 01:16:41;;;;;;;11.24;6.72;;;;;;;;;;365956;146;864951;-54
2022/05/02 01:17:43;;;;;;;6.06;3.28;;;;;;;;;;365562;146;864696;-54
2022/05/02 01:18:46;;;;;;;5.33;3.70;;;;;;;;;;360779;147;857071;-54
2022/05/02 01:19:48;;;;;;;6.95;4.36;;;;;;;;;;359221;147;857163;-55
2022/05/02 01:20:49;;;;;;;6.14;4.45;;;;;;;;;;362230;147;858171;-56
2022/05/02 01:21:51;;;;;;;6.29;3.56;;;;;;;;;;362917;147;864686;-54
2022/05/02 01:22:53;;;;;;;4.99;3.30;;;;;;;;;;356107;150;857090;-54
2022/05/02 01:23:56;;;;;;;7.59;3.63;;;;;;;;;;359139;149;864767;-54
2022/05/02 01:24:58;;;;;;;7.69;3.70;;;;;;;;;;358904;149;864839;-54
2022/05/02 01:25:59;;;;;;;8.24;5.14;;;;;;;;;;357151;149;859070;-54
2022/05/02 01:27:01;;;;;;;10.25;5.93;;;;;;;;;;346236;153;857243;-55
2022/05/02 01:28:03;;;;;;;11.67;6.25;;;;;;;;;;353007;150;864867;-55
2022/05/02 01:29:06;;;;;;;11.29;5.78;;;;;;;;;;353084;150;864938;-55
2022/05/02 01:30:09;;;;;;;10.55;5.23;;;;;;;;;;352949;150;865204;-55
2022/05/02 01:31:11;;;;;;;9.77;5.63;;;;;;;;;;353131;150;857650;-55
2022/05/02 01:32:13;;;;;;;9.41;6.00;;;;;;;;;;353132;150;858959;-55
2022/05/02 01:33:15;;;;;;;14.61;6.23;;;;;;;;;;353063;150;857409;-55
2022/05/02 01:34:16;;;;;;;11.62;5.90;;;;;;;;;;353159;150;865799;-56
2022/05/02 01:35:18;;;;;;;11.04;6.46;;;;;;;;;;353128;150;857849;-54
2022/05/02 01:36:20;;;;;;;12.20;6.28;;;;;;;;;;359330;148;865011;-54
2022/05/02 01:37:22;;;;;;;10.51;5.75;;;;;;;;;;358294;149;857282;-55
2022/05/02 01:38:23;;;;;;;11.08;6.12;;;;;;;;;;358271;150;857226;-55
2022/05/02 01:39:25;;;;;;;8.19;4.99;;;;;;;;;;346805;153;857941;-54
2022/05/02 01:40:26;;;;;;;8.55;5.28;;;;;;;;;;354667;150;865049;-54
2022/05/02 01:41:29;;;;;;;5.47;3.59;;;;;;;;;;352465;153;864786;-54
2022/05/02 01:42:30;;;;;;;11.44;3.85;;;;;;;;;;359005;150;858661;-54
2022/05/02 01:43:32;;;;;;;7.46;3.83;;;;;;;;;;352329;153;857355;-54
2022/05/02 01:44:34;;;;;;;5.24;3.26;;;;;;;;;;354766;149;864723;-57
2022/05/02 01:45:35;;;;;;;6.02;3.43;;;;;;;;;;352858;152;857386;-56
2022/05/02 01:46:38;;;;;;;8.02;3.49;;;;;;;;;;359356;150;857215;-54
2022/05/02 01:47:39;;;;;;;5.77;3.06;;;;;;;;;;351705;153;864780;-56
2022/05/02 01:48:41;;;;;;;11.26;4.20;;;;;;;;;;354911;150;857264;-54
2022/05/02 01:49:43;;;;;;;9.38;5.20;;;;;;;;;;352252;153;864737;-54
2022/05/02 01:50:45;;;;;;;13.11;5.51;;;;;;;;;;359981;149;857394;-54
2022/05/02 01:51:46;;;;;;;9.96;5.34;;;;;;;;;;360285;148;866852;-55
2022/05/02 01:52:48;;;;;;;11.30;5.69;;;;;;;;;;353055;150;865831;-55
2022/05/02 01:53:50;;;;;;;10.34;5.26;;;;;;;;;;353396;150;866693;-55
2022/05/02 01:54:51;;;;;;;9.27;5.39;;;;;;;;;;353127;150;865880;-55
2022/05/02 01:55:53;;;;;;;9.76;5.76;;;;;;;;;;355167;148;857186;-55
2022/05/02 01:56:56;;;;;;;9.60;5.61;;;;;;;;;;359319;150;859945;-55
2022/05/02 01:57:57;;;;;;;8.97;5.61;;;;;;;;;;359287;150;865479;-54
2022/05/02 01:58:59;;;;;;;8.40;5.02;;;;;;;;;;359315;149;866882;-54
2022/05/02 02:00:01;;;;;;;8.95;5.17;;;;;;;;;;357042;150;866583;-55
2022/05/02 02:01:02;;;;;;;8.70;5.44;;;;;;;;;;350414;153;858824;-54
2022/05/02 02:02:04;;;;;;;8.45;5.26;;;;;;;;;;356659;149;864874;-54
2022/05/02 02:03:06;;;;;;;8.54;4.82;;;;;;;;;;352963;150;865705;-54
2022/05/02 02:06:47;;;;;;;9.57;2.92;;;;;;;;;;356509;150;857104;-55
2022/05/02 02:07:49;;;;;;;7.01;3.38;;;;;;;;;;354270;150;866441;-53
2022/05/02 02:08:50;;;;;;;4.92;3.01;;;;;;;;;;359335;150;864760;-55
2022/05/02 02:09:52;;;;;;;4.97;2.68;;;;;;;;;;359475;149;857170;-55
2022/05/02 02:10:54;;;;;;;6.19;3.04;;;;;;;;;;359418;149;857309;-55
2022/05/02 02:11:57;;;;;;;8.15;3.03;;;;;;;;;;359363;150;866532;-54
2022/05/02 02:12:59;;;;;;;4.52;2.61;;;;;;;;;;355623;149;857208;-55
2022/05/02 02:23:37;;;;;;;6.50;3.96;;;;;;;6.48;59.85;100310.97;374830;142;880874;-54
2022/05/02 02:24:39;;;;;;;8.42;4.10;;;;;;;6.40;59.77;100311.73;361274;147;857247;-54
2022/05/02 02:25:41;;;;;;;6.04;4.26;;;;;;;6.42;59.78;100309.19;365966;146;858117;-54
2022/05/02 02:26:43;;;;;;;9.28;4.51;;;;;;;6.41;59.70;100316.03;363838;146;865702;-54
2022/05/02 02:27:45;;;;;;;10.33;4.76;;;;;;;6.42;59.72;100309.19;359301;147;857202;-55
2022/05/02 02:28:47;;;;;;;5.33;2.27;;;;;;;6.46;59.77;100310.97;359585;147;857079;-55
2022/05/02 02:29:49;;;;;;;4.19;2.17;;;;;;;6.49;59.17;100310.12;359642;147;857747;-55
2022/05/02 02:30:50;;;;;;;3.31;2.32;;;;;;;6.49;59.17;100317.84;359478;147;864643;-55
2022/05/02 02:31:52;;;;;;;6.16;2.41;;;;;;;6.43;59.07;100306.62;359409;149;866467;-55
2022/05/02 02:32:54;;;;;;;5.77;2.55;;;;;;;6.36;59.19;100309.95;360239;148;865716;-54
2022/05/02 02:33:56;;;;;;;5.41;2.80;;;;;;;6.27;59.39;100315.80;364096;148;866392;-55
2022/05/02 02:34:57;;;;;;;5.77;2.49;;;;;;;6.18;59.66;100318.23;364058;148;864747;-55
2022/05/02 02:35:59;;;;;;;6.98;2.80;;;;;;;6.09;60.18;100307.80;365599;146;864773;-54
2022/05/02 02:37:01;;;;;;;6.73;3.03;;;;;;;6.00;60.40;100308.50;369416;146;864873;-54
2022/05/02 02:38:03;;;;;;;5.93;3.94;;;;;;;5.95;61.23;100315.27;359499;149;860047;-54
2022/05/02 02:39:05;;;;;;;5.77;3.69;;;;;;;5.91;61.12;100309.20;359456;150;860392;-55
2022/05/02 02:40:09;;;;;;;8.71;4.49;;;;;;;5.93;61.32;100309.23;359410;149;857667;-54
2022/05/02 02:41:11;;;;;;;9.51;4.42;;;;;;;;;;359406;150;859175;-55
2022/05/02 02:42:12;;;;;;;6.74;3.49;;;;;;;;;;361846;148;857372;-54
2022/05/02 02:43:14;;;;;;;9.41;4.20;;;;;;;;;;363119;148;858718;-55
2022/05/02 02:44:15;;;;;;;6.66;3.86;;;;;;;;;;365768;145;865364;-54
2022/05/02 02:45:17;;;;;;;7.37;3.84;;;;;;;;;;370069;145;858549;-54
2022/05/02 02:46:18;;;;;;;7.82;4.37;;;;;;;;;;369946;145;859445;-54
2022/05/02 02:47:20;;;;;;;6.36;4.04;;;;;;;;;;366541;145;866180;-54
2022/05/02 02:48:21;;;;;;;4.86;3.71;;;;;;;;;;363645;147;865489;-53
2022/05/02 02:49:23;;;;;;;6.19;3.84;;;;;;;;;;363082;148;865130;-54
2022/05/02 02:50:25;;;;;;;5.61;3.61;;;;;;;;;;363200;145;857074;-54
2022/05/02 02:51:26;;;;;;;8.53;4.01;;;;;;;;;;363107;148;864722;-55
2022/05/02 02:52:27;;;;;;;1.94;1.46;;;;;;;;;;363433;145;866503;-55
2022/05/02 02:53:29;;;;;;;6.44;3.70;;;;;;;;;;363094;148;857191;-53
2022/05/02 02:54:30;;;;;;;8.32;2.60;;;;;;;;;;363215;145;858905;-55
2022/05/02 02:55:32;;;;;;;5.98;2.20;;;;;;;;;;363195;148;858534;-55
2022/05/02 02:56:34;;;;;;;4.16;2.47;;;;;;;;;;363237;145;867994;-54
2022/05/02 02:57:35;;;;;;;4.86;2.73;;;;;;;;;;363056;148;865302;-54
2022/05/02 02:58:37;;;;;;;5.72;2.41;;;;;;;;;;364750;145;859477;-54
2022/05/02 02:59:38;;;;;;;5.16;2.54;;;;;;;;;;369810;145;865673;-56
2022/05/02 03:00:41;;;;;;;6.27;2.83;;;;;;;;;;369733;145;857844;-55
2022/05/02 03:01:42;;;;;;;5.68;3.84;;;;;;;;;;372187;144;858828;-56
2022/05/02 03:02:44;;;;;;;5.59;3.62;;;;;;;;;;367667;145;864848;-56
2022/05/02 03:03:45;;;;;;;7.93;4.04;;;;;;;;;;363297;145;857692;-53
2022/05/02 03:06:07;;;;;;;6.41;3.54;;;;;;;;;;366775;145;859300;-54
2022/05/02 03:07:08;;;;;;;7.85;4.13;;;;;;;;;;368526;145;866092;-54
2022/05/02 03:08:10;;;;;;;10.12;4.10;;;;;;;;;;366442;145;864879;-54
2022/05/02 03:09:11;;;;;;;9.63;4.35;;;;;;;;;;363257;145;864975;-55
2022/05/02 03:10:13;;;;;;;5.75;3.95;;;;;;;;;;363184;148;864986;-54
2022/05/02 03:11:15;;;;;;;7.36;3.90;;;;;;;;;;363556;148;856264;-54
2022/05/02 03:12:17;;;;;;;9.59;3.66;;;;;;;;;;363462;145;864962;-56
2022/05/02 03:13:18;;;;;;;8.05;3.61;;;;;;;;;;363770;148;864916;-54
2022/05/02 03:14:20;;;;;;;6.48;3.51;;;;;;;;;;363860;148;857441;-54
2022/05/02 03:15:21;;;;;;;6.56;3.69;;;;;;;;;;363862;148;859926;-53
2022/05/02 03:16:23;;;;;;;7.79;3.13;;;;;;;;;;363438;145;857226;-56
2022/05/02 03:17:25;;;;;;;3.80;2.40;;;;;;;;;;363853;147;865119;-56
2022/05/02 03:18:26;;;;;;;3.56;2.33;;;;;;;;;;363715;147;866989;-55
2022/05/02 03:19:28;;;;;;;4.49;2.35;;;;;;;;;;363275;148;857237;-55
2022/05/02 03:20:29;;;;;;;3.52;2.26;;;;;;;;;;363412;145;857163;-54
2022/05/02 03:21:31;;;;;;;5.87;1.97;;;;;;;;;;363208;148;864949;-55
2022/05/02 03:22:32;;;;;;;4.77;2.29;;;;;;;;;;363299;145;857279;-55
2022/05/02 03:23:34;;;;;;;4.32;2.18;;;;;;;;;;363298;148;859398;-55
2022/05/02 03:24:36;;;;;;;5.01;2.34;;;;;;;;;;369706;145;860330;-55
2022/05/02 03:25:37;;;;;;;5.10;2.84;;;;;;;;;;367180;145;860066;-54
2022/05/02 03:26:39;;;;;;;6.10;3.34;;;;;;;;;;363887;148;857166;-54
2022/05/02 03:27:40;;;;;;;5.61;3.47;;;;;;;;;;363780;147;864939;-55
2022/05/02 03:28:42;;;;;;;4.33;3.18;;;;;;;;;;363704;147;857115;-54
2022/05/02 03:29:43;;;;;;;4.61;3.48;;;;;;;;;;363237;148;864869;-54
2022/05/02 03:30:45;;;;;;;5.23;3.47;;;;;;;;;;363429;145;865249;-55
2022/05/02 03:31:46;;;;;;;9.58;3.46;;;;;;;;;;364433;145;864660;-54
2022/05/02 03:32:48;;;;;;;5.16;3.56;;;;;;;;;;367151;145;857195;-55
2022/05/02 03:33:49;;;;;;;7.06;3.72;;;;;;;;;;363290;148;857241;-54
2022/05/02 03:34:51;;;;;;;7.15;3.80;;;;;;;;;;363258;148;857328;-55
2022/05/02 03:35:52;;;;;;;7.91;3.81;;;;;;;;;;363236;148;857171;-55
2022/05/02 03:36:54;;;;;;;5.87;4.03;;;;;;;;;;363209;148;859095;-55
2022/05/02 03:37:56;;;;;;;4.77;3.58;;;;;;;;;;363577;145;858242;-55
2022/05/02 03:38:57;;;;;;;6.85;3.84;;;;;;;;;;363282;145;858256;-54
2022/05/02 03:39:59;;;;;;;7.46;3.64;;;;;;;;;;364049;145;859649;-54
2022/05/02 03:41:01;;;;;;;3.06;2.07;;;;;;;;;;363182;148;865368;-55
2022/05/02 03:42:03;;;;;;;2.99;2.11;;;;;;;;;;363164;148;864784;-54
2022/05/02 03:43:04;;;;;;;5.89;2.90;;;;;;;;;;363087;145;864582;-54
2022/05/02 03:44:06;;;;;;;3.12;2.32;;;;;;;;;;363085;148;858987;-54
2022/05/02 03:45:08;;;;;;;8.04;3.01;;;;;;;;;;363427;148;866464;-54
2022/05/02 03:46:10;;;;;;;5.99;2.21;;;;;;;;;;363274;147;865703;-54
2022/05/02 03:47:11;;;;;;;3.56;2.06;;;;;;;;;;363284;148;857877;-54
2022/05/02 03:48:13;;;;;;;2.82;2.00;;;;;;;;;;365942;144;857268;-55
2022/05/02 03:49:14;;;;;;;6.86;2.59;;;;;;;;;;363192;145;856814;-54
2022/05/02 03:50:16;;;;;;;4.75;3.22;;;;;;;;;;367319;145;857297;-55
2022/05/02 03:51:18;;;;;;;6.95;3.62;;;;;;;;;;369704;145;864879;-55
2022/05/02 03:52:19;;;;;;;5.72;3.47;;;;;;;;;;365421;145;857365;-54
2022/05/02 03:53:21;;;;;;;13.19;4.76;;;;;;;;;;363023;148;857394;-55
2022/05/02 03:54:23;;;;;;;8.39;4.16;;;;;;;;;;368158;145;857173;-54
2022/05/02 03:55:24;;;;;;;10.09;3.89;;;;;;;;;;363536;148;864818;-54
2022/05/02 03:56:26;;;;;;;9.51;3.86;;;;;;;;;;363499;147;864699;-54
2022/05/02 03:57:27;;;;;;;8.51;3.61;;;;;;;;;;363009;148;864697;-54
2022/05/02 03:58:29;;;;;;;6.56;3.85;;;;;;;;;;368011;145;857288;-54
2022/05/02 03:59:30;;;;;;;4.71;3.14;;;;;;;;;;363308;147;857305;-55
2022/05/02 04:00:32;;;;;;;5.90;3.45;;;;;;;;;;363351;145;859009;-54
2022/05/02 04:01:39;;;;;;;5.54;3.23;;;;;;;;;;363611;147;866522;-57
2022/05/02 04:02:40;;;;;;;5.99;3.07;;;;;;;;;;364799;145;864827;-57
2022/05/02 04:03:42;;;;;;;7.83;3.41;;;;;;;;;;369767;145;857645;-57
2022/05/02 04:04:43;;;;;;;9.11;3.26;;;;;;;;;;366073;145;866545;-57
2022/05/02 04:05:44;;;;;;;4.99;2.06;;;;;;;;;;368991;145;858864;-54
2022/05/02 04:06:48;;;;;;;4.49;1.98;;;;;;;;;;363446;148;858065;-55
2022/05/02 04:07:49;;;;;;;8.89;1.83;;;;;;;;;;362851;148;864780;-57
2022/05/02 04:08:51;;;;;;;2.17;1.62;;;;;;;;;;361790;146;857702;-57
2022/05/02 04:09:52;;;;;;;4.79;1.72;;;;;;;;;;363245;148;857291;-54
2022/05/02 04:10:54;;;;;;;6.83;2.33;;;;;;;;;;366734;145;857357;-56
2022/05/02 04:11:56;;;;;;;2.27;1.89;;;;;;;;;;367976;145;865848;-55
2022/05/02 04:12:58;;;;;;;2.85;1.75;;;;;;;;;;363613;148;860281;-55
2022/05/02 04:14:00;;;;;;;6.98;3.36;;;;;;;;;;363562;147;865432;-55
2022/05/02 04:15:01;;;;;;;6.15;3.41;;;;;;;;;;363616;147;857206;-55
2022/05/02 04:16:03;;;;;;;5.14;3.02;;;;;;;;;;363466;147;858965;-55
2022/05/02 04:17:05;;;;;;;5.29;3.13;;;;;;;;;;363149;145;859392;-54
2022/05/02 04:18:06;;;;;;;4.58;2.93;;;;;;;;;;363010;148;865175;-55
2022/05/02 04:19:07;;;;;;;5.42;3.46;;;;;;;;;;363551;145;857856;-55
2022/05/02 04:20:10;;;;;;;5.61;3.43;;;;;;;;;;366720;145;857203;-54
2022/05/02 04:21:11;;;;;;;4.18;3.07;;;;;;;;;;364601;145;857200;-54
2022/05/02 04:22:13;;;;;;;6.25;3.02;;;;;;;;;;363646;147;857307;-55
2022/05/02 04:23:14;;;;;;;7.14;2.99;;;;;;;;;;363040;145;864911;-55
2022/05/02 04:24:16;;;;;;;4.21;3.08;;;;;;;;;;363296;145;857420;-54
2022/05/02 04:25:17;;;;;;;5.24;2.88;;;;;;;;;;363673;145;857410;-53
2022/05/02 04:26:19;;;;;;;5.12;3.55;;;;;;;;;;363690;145;857434;-55
2022/05/02 04:27:20;;;;;;;4.68;2.75;;;;;;;;;;363549;145;864861;-54
2022/05/02 04:28:22;;;;;;;4.72;3.05;;;;;;;;;;368475;145;858803;-55
2022/05/02 04:29:24;;;;;;;3.46;2.45;;;;;;;;;;370399;145;859932;-54
2022/05/02 04:30:26;;;;;;;4.01;2.27;;;;;;;;;;369655;145;858538;-56
2022/05/02 04:31:28;;;;;;;6.56;2.51;;;;;;;;;;363844;147;857189;-55
2022/05/02 04:32:30;;;;;;;2.40;2.20;;;;;;;;;;368512;145;857286;-55
2022/05/02 04:33:31;;;;;;;8.07;1.87;;;;;;;;;;363823;147;857213;-55
2022/05/02 04:34:33;;;;;;;7.88;2.59;;;;;;;;;;364661;145;857222;-55
2022/05/02 04:35:34;;;;;;;2.74;1.49;;;;;;;;;;370389;145;866481;-55
2022/05/02 04:36:36;;;;;;;3.53;2.13;;;;;;;;;;370112;145;859493;-55
2022/05/02 04:37:38;;;;;;;3.74;2.44;;;;;;;;;;366498;145;857379;-55
2022/05/02 04:38:39;;;;;;;5.42;2.94;;;;;;;;;;363510;148;859161;-55
2022/05/02 04:39:41;;;;;;;4.09;2.71;;;;;;;;;;363921;146;865860;-56
2022/05/02 04:40:42;;;;;;;4.56;2.84;;;;;;;;;;369352;145;858509;-55
2022/05/02 04:41:44;;;;;;;3.58;2.41;;;;;;;;;;369590;145;857825;-55
2022/05/02 04:42:46;;;;;;;3.90;2.94;;;;;;;;;;366043;145;857841;-56
2022/05/02 04:43:51;;;;;;;4.99;2.72;;;;;;;;;;369286;145;857107;-55
2022/05/02 04:44:51;;;;;;;6.84;3.12;;;;;;;;;;363555;144;864851;-56
2022/05/02 04:45:52;;;;;;;10.16;2.68;;;;;;;;;;363802;147;857286;-56
2022/05/02 04:46:54;;;;;;;5.05;2.86;;;;;;;;;;364179;145;858704;-56
2022/05/02 04:47:57;;;;;;;4.26;2.52;;;;;;;;;;368443;145;866187;-56
2022/05/02 04:48:58;;;;;;;5.22;2.65;;;;;;;;;;367724;145;858934;-55
2022/05/02 04:50:00;;;;;;;4.71;2.49;;;;;;;;;;367879;145;859237;-54
2022/05/02 04:51:01;;;;;;;4.26;2.46;;;;;;;;;;363801;145;860363;-55
2022/05/02 04:52:03;;;;;;;7.24;2.40;;;;;;;;;;366451;145;858630;-55
2022/05/02 04:53:05;;;;;;;7.99;3.01;;;;;;;;;;365454;145;857146;-55
2022/05/02 04:54:06;;;;;;;3.13;1.57;;;;;;;;;;363944;145;859704;-55
2022/05/02 04:55:08;;;;;;;3.69;2.49;;;;;;;;;;363846;145;858250;-55
2022/05/02 04:56:10;;;;;;;2.03;1.57;;;;;;;;;;363856;148;857267;-54
2022/05/02 04:57:11;;;;;;;4.82;2.54;;;;;;;;;;363680;147;859216;-57
2022/05/02 04:58:13;;;;;;;5.70;2.63;;;;;;;;;;363629;145;858029;-55
2022/05/02 04:59:14;;;;;;;6.40;2.70;;;;;;;;;;363630;148;856484;-55
2022/05/02 05:00:16;;;;;;;3.17;2.11;;;;;;;;;;363686;145;857323;-55
2022/05/02 05:01:18;;;;;;;4.26;2.50;;;;;;;;;;363822;145;857727;-55
2022/05/02 05:02:20;;;;;;;6.93;2.72;;;;;;;;;;363383;148;858312;-55
2022/05/02 05:03:21;;;;;;;7.11;2.86;;;;;;;;;;363601;148;867211;-56
2022/05/02 05:04:23;;;;;;;5.60;3.01;;;;;;;;;;363602;145;858873;-55
2022/05/02 05:05:24;;;;;;;5.61;3.04;;;;;;;;;;363396;148;857138;-55
2022/05/02 05:06:26;;;;;;;6.24;2.63;;;;;;;;;;363847;145;857683;-55
2022/05/02 05:07:28;;;;;;;4.91;2.76;;;;;;;;;;370201;145;864780;-57
2022/05/02 05:08:29;;;;;;;4.18;2.85;;;;;;;;;;364386;145;858916;-55
2022/05/02 05:09:31;;;;;;;5.94;2.96;;;;;;;;;;363360;148;865941;-55
2022/05/02 05:10:34;;;;;;;8.76;3.22;;;;;;;;;;363689;145;859116;-55
2022/05/02 05:11:53;;;;;;;5.24;2.76;;;;;;;;;;363214;145;866410;-56
2022/05/02 05:13:07;;;;;;;5.78;2.86;;;;;;;;;;363218;145;857341;-55
2022/05/02 05:17:03;;;;;;;4.52;2.90;;;;;;;;;;363279;148;860285;-56
2022/05/02 05:18:19;;;;;;;5.40;3.51;;;;;;;;;;363279;148;858857;-56
2022/05/02 05:19:39;;;;;;;4.99;2.37;;;;;;;;;;363127;148;865566;-56
2022/05/02 05:20:46;;;;;;;5.25;1.84;;;;;;;;;;363341;148;857704;-55
2022/05/02 05:21:52;;;;;;;3.48;2.15;;;;;;;;;;363129;147;857603;-55
2022/05/02 05:23:08;;;;;;;4.29;2.12;;;;;;;;;;362915;148;859044;-55
2022/05/02 05:24:24;;;;;;;5.53;2.94;;;;;;;;;;363202;148;857202;-57
2022/05/02 05:25:27;;;;;;;6.16;3.11;;;;;;;;;;363400;148;857253;-55
2022/05/02 05:26:44;;;;;;;6.99;3.86;;;;;;;;;;363706;148;859341;-56
2022/05/02 05:28:05;;;;;;;5.70;2.91;;;;;;;;;;363619;148;864697;-56
2022/05/02 05:29:09;;;;;;;5.99;3.17;;;;;;;;;;363992;145;859385;-57
2022/05/02 05:30:11;;;;;;;5.68;3.19;;;;;;;;;;369872;145;858923;-54
2022/05/02 05:31:14;;;;;;;5.47;3.22;;;;;;;;;;363822;148;857435;-54
2022/05/02 05:32:28;;;;;;;6.08;2.61;;;;;;;;;;363774;147;864468;-56
2022/05/02 05:33:31;;;;;;;4.21;3.41;;;;;;;;;;363680;147;857994;-55
2022/05/02 05:34:47;;;;;;;7.31;3.62;;;;;;;;;;363701;147;857265;-55
2022/05/02 05:36:08;;;;;;;5.07;2.85;;;;;;;;;;363696;147;860181;-55
2022/05/02 05:37:21;;;;;;;5.90;3.63;;;;;;;;;;363666;147;857534;-55
2022/05/02 05:38:24;;;;;;;5.87;3.63;;;;;;;;;;354189;147;857787;-55
2022/05/02 05:39:27;;;;;;;6.21;3.74;;;;;;;;;;364637;147;858215;-55
2022/05/02 05:40:34;;;;;;;4.00;3.03;;;;;;;;;;363452;148;858877;-54
2022/05/02 05:41:41;;;;;;;6.31;2.60;;;;;;;;;;370084;145;857602;-54
2022/05/02 05:42:50;;;;;;;7.41;2.66;;;;;;;;;;369623;145;859653;-54
2022/05/02 05:43:54;;;;;;;4.51;1.84;;;;;;;;;;365105;145;857146;-55
2022/05/02 05:44:59;;;;;;;6.24;2.77;;;;;;;;;;363214;148;857167;-55
2022/05/02 05:46:11;;;;;;;6.85;2.54;;;;;;;;;;363255;148;857335;-55
2022/05/02 05:47:32;;;;;;;5.13;2.33;;;;;;;;;;363197;145;857955;-55
2022/05/02 05:48:38;;;;;;;3.59;1.89;;;;;;;;;;363395;145;857160;-55
2022/05/02 05:49:45;;;;;;;4.23;2.18;;;;;;;;;;363129;145;861021;-55
2022/05/02 05:50:51;;;;;;;3.25;1.87;;;;;;;;;;363236;148;857183;-55
2022/05/02 05:52:01;;;;;;;7.52;2.29;;;;;;;;;;365045;145;857603;-55
2022/05/02 05:53:16;;;;;;;6.33;2.47;;;;;;;;;;369674;145;858280;-56
2022/05/02 05:54:26;;;;;;;4.03;2.28;;;;;;;;;;364426;145;859034;-56
2022/05/02 05:55:29;;;;;;;5.17;2.58;;;;;;;;;;360017;148;857398;-55
2022/05/02 05:56:32;;;;;;;5.14;2.46;;;;;;;;;;363349;145;857156;-56
2022/05/02 05:57:39;;;;;;;4.20;2.72;;;;;;;;;;363362;148;858895;-55
2022/05/02 05:58:45;;;;;;;3.54;2.41;;;;;;;;;;363273;148;858228;-55
2022/05/02 05:59:56;;;;;;;3.38;2.01;;;;;;;;;;363245;148;857635;-56
2022/05/02 06:01:03;;;;;;;5.83;2.53;;;;;;;;;;363346;145;859902;-56
2022/05/02 06:02:09;;;;;;;4.08;2.52;;;;;;;;;;362951;148;859743;-55
2022/05/02 06:03:15;;;;;;;3.25;2.21;;;;;;;;;;367859;145;858837;-55
2022/05/02 06:04:17;;;;;;;3.28;1.99;;;;;;;;;;369813;145;857249;-57
2022/05/02 06:05:18;;;;;;;4.09;1.75;;;;;;;;;;363994;145;857278;-57
2022/05/02 06:06:20;;;;;;;4.03;1.95;;;;;;;;;;363661;147;859042;-58
2022/05/02 06:07:21;;;;;;;3.29;2.14;;;;;;;;;;363771;148;857237;-57
2022/05/02 06:08:23;;;;;;;3.57;2.16;;;;;;;;;;363528;148;857194;-58
2022/05/02 06:09:26;;;;;;;2.92;1.78;;;;;;;;;;363706;147;857234;-59
2022/05/02 06:10:28;;;;;;;6.91;1.74;;;;;;;;;;363656;145;857696;-57
2022/05/02 06:11:30;;;;;;;2.46;1.44;;;;;;;;;;363323;148;865920;-58
2022/05/02 06:12:31;;;;;;;2.66;1.61;;;;;;;;;;363434;145;866462;-58
2022/05/02 06:13:33;;;;;;;3.54;1.79;;;;;;;;;;363749;147;857629;-58
2022/05/02 06:18:27;;;;;;;5.74;1.57;;;;;;;;;;363336;145;859048;-59
2022/05/02 06:18:29;;;;;;;3.12;1.64;;;;;;;;;;363380;147;856434;-58
2022/05/02 06:19:30;;;;;;;;;;;;;;;;;;372973;145;858536;-59
2022/05/02 06:20:38;;;;;;;3.87;1.49;;;;;;;;;;363800;145;858958;-59
2022/05/02 06:21:44;;;;;;;5.21;1.65;;;;;;;;;;363071;145;857899;-59
2022/05/02 06:22:46;;;;;;;3.22;1.60;;;;;;;;;;365909;145;857713;-59
2022/05/02 06:23:50;;;;;;;3.57;1.87;;;;;;;;;;369064;145;857055;-59